x

West Washington - 300nm West Of Aberdeen, Wa (46005) Wave Buoy

10:50am - Thu 27th Nov 2014 All times are UTC.

  • Sig Wave height 13.1ft
  • Swell Direction
  • Peak Period 12s
  • Average Period 8s
  • Wind
    22mph, 29mph gusts
  • Sea Temp 57°f
  • Air Temp 59°f
  • Sea Pressure 1004.2mb

More Historic Weather Station data

Upgrade to MSW Pro to gain access to the past 30 days of data for over 8000 Wavebouys and Weather Stations around the globe.

Join Pro

Comparision Forecast

View Surf forecast
   
Thu 11/27 10:50am 13ft 12s 8s 22 29 mph 1004.2mb 57f 59f
9:50am 12ft 12s 7s 25 29 mph 1004.2mb 57f 59f
8:50am 12ft 11s 8s 25 27 mph 1004.7mb 57f 59f
7:50am 12ft 12s 8s 22 27 mph 1004.7mb 57f 59f
6:50am 12ft 12s 8s 22 27 mph 1004.7mb 57f 59f
5:50am 11.5ft 12s 8s 20 25 mph 1004.2mb 57f 59f
4:50am 13.5ft 12s 8s 20 25 mph 1004.2mb 57f 59f
3:50am 12ft 11s 8s 20 25 mph 1004.1mb 57f 59f
2:50am 12ft 12s 8s 22 27 mph 1003.9mb 57f 59f
1:50am 12.5ft 13s 8s 20 25 mph 1003.8mb 57f 59f
12:50am 11ft 11s 8s 20 22 mph 1004mb 57f 59f
Wed 11/26 11:50pm 12ft 9s 8s 18 22 mph 1004.2mb 57f 58f
10:50pm 11.5ft 9s 7s 20 25 mph 1004mb 58f 58f
9:50pm 12ft 9s 7s 25 31 mph 1004.1mb 58f 59f
8:50pm 11ft 8s 6s 27 34 mph 1004.1mb 57f 59f
7:50pm 10ft 8s 6s 29 36 mph 1005.3mb 57f 59f
6:50pm 9.5ft 7s 6s 27 34 mph 1007mb 58f 59f
5:50pm 9ft 8s 6s 31 40 mph 1007.9mb 58f 59f
4:50pm 8.5ft 7s 6s 27 36 mph 1008.4mb 57f 59f
3:50pm 8ft 11s 6s 25 31 mph 1009.3mb 58f 59f
2:50pm 7.5ft 8s 6s 22 29 mph 1009.7mb 58f 59f
1:50pm 7ft 8s 6s 22 27 mph 1011.6mb 58f 59f
12:50pm 7ft 13s 6s 22 29 mph 1012.2mb 58f 59f
11:50am 6.5ft 10s 6s 20 25 mph 1013.7mb 58f 59f
10:50am 6.5ft 12s 7s 18 22 mph 1014.7mb 58f 59f
9:50am 6.5ft 11s 7s 16 18 mph 1015.5mb 58f 59f
8:50am 6.5ft 11s 7s 13 18 mph 1016.7mb 58f 59f
7:50am 7ft 11s 7s 16 18 mph 1017.7mb 58f 59f
6:50am 8ft 11s 7s 18 22 mph 1018.1mb 58f 58f
5:50am 7ft 12s 7s 25 29 mph 1018.2mb 58f 58f
4:50am 7ft 11s 6s 16 20 mph 1018.8mb 58f 58f
3:50am 7.5ft 12s 7s 18 20 mph 1019.2mb 58f 58f
2:50am 7ft 11s 6s 18 22 mph 1019.5mb 58f 58f
1:50am 7.5ft 11s 6s 13 16 mph 1019.5mb 58f 58f
12:50am 7.5ft 8s 7s 18 20 mph 1019.8mb 58f 58f
Tue 11/25 11:50pm 8ft 11s 7s 18 22 mph 1020.2mb 58f 59f
10:50pm 8ft 11s 7s 18 20 mph 1020.5mb 58f 59f
9:50pm 8.5ft 12s 7s 20 22 mph 1020.8mb 58f 59f
8:50pm 8.5ft 11s 7s 20 25 mph 1021.1mb 58f 59f
7:50pm 7.5ft 11s 7s 20 22 mph 1021.3mb 58f 60f
6:50pm 7.5ft 13s 7s 22 25 mph 1021.6mb 58f 60f
5:50pm 8ft 13s 7s 18 22 mph 1021.9mb 58f 60f
4:50pm 9ft 12s 7s 18 22 mph 1021.8mb 58f 59f
3:50pm 9ft 12s 7s 20 22 mph 1021.6mb 58f 59f
2:50pm 9.5ft 11s 7s 20 25 mph 1021.6mb 58f 60f
1:50pm 9.5ft 11s 7s 20 25 mph 1021.4mb 58f 60f
12:50pm 10ft 11s 7s 18 22 mph 1021.3mb 58f 60f
11:50am 9.5ft 12s 7s 20 25 mph 1021.4mb 58f 60f
10:50am 10ft 13s 7s 20 25 mph 1021.5mb 58f 59f
9:50am 10.5ft 12s 7s 20 25 mph 1021.2mb 58f 59f
8:50am 10ft 12s 7s 22 27 mph 1021.3mb 58f 59f
7:50am 10ft 12s 7s 25 29 mph 1021.2mb 58f 59f
6:50am 10ft 14s 7s 25 29 mph 1021.1mb 58f 59f
5:50am 10ft 13s 7s 22 27 mph 1021mb 58f 59f
4:50am 9ft 14s 7s 25 29 mph 1020.9mb 58f 58f
2:50am 9ft 14s 8s 16 18 mph 1020.8mb 58f 58f
1:50am 9ft 12s 7s 16 18 mph 1020.9mb 58f 58f
12:50am 9.5ft 11s 8s 11 16 mph 1020.7mb 58f 57f
Mon 11/24 11:50pm 10ft 12s 8s 18 22 mph 1020mb 58f 57f
10:50pm 10.5ft 13s 8s 16 20 mph 1019.6mb 58f 57f
9:50pm 11ft 13s 8s 18 22 mph 1019.5mb 58f 57f
8:50pm 10ft 13s 8s 22 27 mph 1019.4mb 58f 58f
7:50pm 10.5ft 12s 7s 20 25 mph 1019.3mb 58f 58f
6:50pm 9.5ft 14s 7s 20 25 mph 1019.3mb 58f 58f
5:50pm 10.5ft 14s 7s 20 25 mph 1018.5mb 58f 58f
4:50pm 12ft 13s 8s 22 27 mph 1018mb 57f 58f
3:50pm 10.5ft 15s 7s 22 29 mph 1017.9mb 57f 58f
2:50pm 11.5ft 15s 8s 25 31 mph 1018.1mb 57f 58f
1:50pm 11ft 13s 7s 25 31 mph 1018.3mb 57f 58f
12:50pm 11.5ft 15s 8s 22 29 mph 1018.6mb 57f 58f
11:50am 10ft 13s 8s 25 27 mph 1018.5mb 57f 58f
10:50am 11ft 13s 8s 22 27 mph 1019.3mb 57f 58f
9:50am 12.5ft 14s 9s 20 25 mph 1019.6mb 57f 58f
8:50am 12ft 14s 9s 20 22 mph 1020.5mb 57f 58f
7:50am 11ft 13s 9s 18 22 mph 1021.2mb 57f 58f
6:50am 12.5ft 14s 9s 18 22 mph 1021.5mb 57f 58f
5:50am 12ft 14s 9s 18 20 mph 1021.1mb 57f 58f
4:50am 12ft 14s 9s 16 18 mph 1021.3mb 57f 58f
3:50am 12.5ft 13s 9s 13 18 mph 1021.6mb 57f 58f
2:50am 14ft 13s 9s 13 16 mph 1022.1mb 57f 58f
1:50am 15ft 14s 10s 13 18 mph 1022.2mb 57f 57f
12:50am 15ft 14s 10s 13 18 mph 1021.8mb 58f 57f
Sun 11/23 11:50pm 13ft 12s 9s 13 16 mph 1021.8mb 58f 57f
10:50pm 13ft 14s 9s 11 13 mph 1021.9mb 58f 57f
9:50pm 15.5ft 14s 10s 9 11 mph 1022.4mb 58f 57f
8:50pm 13.5ft 13s 9s 9 11 mph 1022.5mb 57f 57f
7:50pm 15.5ft 13s 10s 7 9 mph 1022.9mb 57f 57f
6:50pm 14ft 15s 9s 7 11 mph 1022.9mb 57f 56f
5:50pm 15ft 12s 10s 11 13 mph 1022.6mb 57f 56f
4:50pm 15.5ft 14s 9s 11 16 mph 1022.1mb 57f 56f
3:50pm 15ft 13s  -  13 18 mph 1021.2mb 57f 56f
2:50pm 15ft 11s 8s 16 20 mph 1020.6mb 57f 56f
1:50pm 15ft 13s 8s 18 22 mph 1020.4mb 57f 56f
12:50pm 15ft 13s 8s 27 36 mph 1019.8mb 57f 55f